EBBL 192355Z AUTO 00000KT 0300 -DZ NCD 11/11 Q1022 RED EBBL 192325Z AUTO VRB01KT 0050 -RA NCD 12/12 Q1022 RED EBBL 192303Z AUTO VRB01KT 0250 -RA NCD 12/12 Q1022 RED EBBL 192255Z AUTO VRB01KT 4200 BR NCD 12/12 Q1022 GRN EBBL 192249Z AUTO VRB01KT 3600 BR NCD 12/12 Q1022 YLO EBBL 192233Z AUTO VRB02KT 4700 NCD 13/12 Q1022 GRN EBBL 192225Z AUTO VRB02KT 6000 NCD 13/12 Q1022 WHT EBBL 192155Z AUTO VRB02KT 7000 NCD 13/12 Q1022 WHT EBBL 192133Z AUTO VRB02KT 7000 NCD 14/13 Q1022 WHT EBBL 192125Z AUTO VRB02KT 8000 NCD 14/13 Q1022 BLU EBBL 192120Z AUTO VRB02KT 7000 NCD 14/13 Q1022 WHT EBBL 192055Z AUTO VRB02KT 9000 NCD 15/13 Q1021 BLU EBBL 192025Z AUTO 30003KT 9999 NCD 16/13 Q1021 BLU EBBL 192015Z AUTO 29004KT 9999 FEW014/// 16/13 Q1021 BLU EBBL 191955Z AUTO 30005KT 9999 SCT014/// 17/14 Q1021 GRN EBBL 191950Z AUTO 30004KT 9999 SCT014/// 17/14 Q1021 GRN EBBL 191925Z AUTO 30004KT 9999 FEW015/// 17/14 Q1021 BLU EBBL 191915Z AUTO 30003KT 9999 FEW017/// 18/14 Q1021 BLU EBBL 191855Z AUTO 31004KT 9999 FEW019/// SCT024/// 18/14 Q1021 WHT EBBL 191825Z AUTO 31005KT 9999 SCT018/// 19/15 Q1020 WHT EBBL 191820Z AUTO 31006KT 9999 SCT018/// 19/15 Q1020 WHT EBBL 191755Z AUTO 31007KT 9999 FEW026/// 20/15 Q1020 BLU EBBL 191745Z AUTO 31007KT 9999 SCT024/// 20/15 Q1020 WHT EBBL 191744Z AUTO 31008KT 9999 BKN025/// 20/15 Q1020 BLU EBBL 191733Z AUTO 30008KT 9999 BKN024/// 21/15 Q1020 WHT EBBL 191725Z AUTO 29008KT 9999 BKN025/// BKN043/// 22/16 Q1020 BLU EBBL 191719Z AUTO 26009KT 9999 SCT024/// BKN042/// 22/16 Q1019 WHT EBBL 191655Z AUTO 26009KT 9999 BKN029/// 22/15 Q1019 BLU EBBL 191625Z AUTO 26007KT 9999 SCT027/// BKN068/// 22/15 Q1019 BLU EBBL 191555Z AUTO 26007KT 9999 BKN063/// 23/15 Q1019 BLU EBBL 191525Z AUTO 25012KT 9999 FEW077/// BKN140/// 22/15 Q1019 BLU EBBL 191455Z 26011KT 9999 FEW030 SCT080 23/14 Q1019 BLU FCST CANCEL EBBL 191425Z 36004KT 9999 FEW040 BKN160 23/16 Q1018 BLU BLU EBBL 191424Z 01005KT 9999 FEW040 BKN160 23/16 Q1018 BLU BLU EBBL 191355Z 36003KT 9999 FEW040 BKN160 22/17 Q1018 BLU WHT EBBL 191325Z 30007KT 9999 FEW010 SCT060 20/16 Q1018 BLU WHT EBBL 191307Z 29007KT 9999 -SHRA FEW010 SCT060CB 19/15 Q1018 BLU WHT EBBL 191255Z 30007KT 9999 FEW010 SCT060CB 20/15 Q1018 BLU BLU EBBL 191225Z 30009KT 8000 TS FEW010 SCT040CB BKN100 18/15 Q1018 BLU BLU EBBL 191207Z 30014G27KT 8000 TS FEW010 SCT040CB 17/15 Q1017 BLU BLU EBBL 191204Z 30015G27KT 8000 FEW010 SCT040CB 17/15 Q1017 BLU BLU EBBL 191155Z 29018G34KT 4000 TSRA FEW040CB SCT080 17/15 Q1018 GRN BLU EBBL 191154Z 29021G42KT 4000 TSRA FEW040CB SCT080 18/15 Q1017 GRN BLU EBBL 191142Z 23016G50KT 2000 TSRA FEW040CB SCT080 23/13 Q1017 YLO BLU EBBL 191125Z 20007KT 9999 FEW040 SCT080 28/13 Q1015 BLU BLU TEMPO WHT EBBL 191055Z 16005KT 9999 FEW040 SCT080 30/13 Q1015 BLU BLU TEMPO WHT EBBL 191025Z 14004KT 9999 FEW040 SCT080 29/14 Q1015 BLU BLU TEMPO WHT EBBL 190955Z 13004KT 9999 FEW040 SCT080 29/14 Q1016 BLU BLU TEMPO WHT EBBL 190855Z 13006KT 9999 SCT180 26/14 Q1016 BLU BLU TEMPO WHT EBBL 190825Z 12005KT 9999 SCT180 25/15 Q1016 BLU BLU TEMPO WHT EBBL 190755Z 12003KT 9999 FEW060 SCT120 23/15 Q1016 BLU BLU TEMPO WHT EBBL 190725Z VRB02KT 9999 SCT060 BKN120 20/16 Q1017 BLU BLU TEMPO WHT EBBL 190655Z 12005KT 9999 -SHRA SCT070TCU BKN120 20/15 Q1016 BLU BLU TEMPO WHT EBBL 190625Z 10005KT 9999 SCT090 BKN120 20/15 Q1017 BLU BLU TEMPO WHT EBBL 190615Z 09005KT 9999 BKN090 20/15 Q1017 BLU BLU TEMPO WHT EBBL 190603Z 08003KT 9999 BKN090 20/15 Q1017 BLU BLU TEMPO WHT EBBL 182255Z AUTO VRB02KT 9999 NCD 18/15 Q1018 BLU EBBL 182225Z AUTO VRB01KT 9999 NCD 19/15 Q1018 BLU EBBL 182155Z AUTO VRB01KT 9999 NCD 19/15 Q1019 BLU EBBL 182125Z AUTO 05004KT 9999 SCT084/// 21/15 Q1019 BLU EBBL 182055Z AUTO 03003KT 9999 BKN084/// 21/15 Q1019 BLU EBBL 182025Z AUTO 01003KT 9999 BKN091/// 22/15 Q1019 BLU EBBL 181955Z AUTO 36003KT 9999 BKN092/// 22/14 Q1019 BLU EBBL 181925Z AUTO VRB02KT 9999 FEW095/// 23/14 Q1019 BLU EBBL 181855Z AUTO 35003KT 9999 NCD 24/14 Q1019 BLU EBBL 181825Z AUTO 01003KT 9999 NCD 24/14 Q1019 BLU EBBL 181755Z AUTO 35003KT 9999 FEW100/// 25/14 Q1019 BLU EBBL 181725Z AUTO VRB02KT 9999 FEW095/// 26/13 Q1019 BLU EBBL 181655Z AUTO 34005KT 9999 FEW082/// 27/12 Q1019 BLU EBBL 181625Z AUTO 29003KT 9999 BKN095/// 27/14 Q1020 BLU EBBL 181622Z AUTO VRB02KT 9999 BKN095/// 27/13 Q1020 BLU EBBL 181611Z AUTO 28003KT 3600 BKN096/// 27/13 Q1019 YLO EBBL 181555Z AUTO 27003KT 9999 BKN092/// 27/14 Q1020 BLU EBBL 181525Z AUTO 28004KT 9999 BKN093/// 27/14 Q1020 BLU EBBL 181455Z 31004KT 9999 SCT095 27/14 Q1020 BLU BLU EBBL 181425Z 29003KT 9999 SCT075 27/14 Q1020 BLU BLU EBBL 181355Z 29003KT 9999 SCT075 27/15 Q1020 BLU BLU EBBL 181325Z 27005KT 9999 SCT075 27/14 Q1020 BLU BLU EBBL 181255Z 28006KT 9999 BKN075 26/14 Q1020 BLU BLU EBBL 181225Z 27005KT 9999 BKN080 27/14 Q1020 BLU BLU

METAR Messwerte "KLEINE-BROGEL(BA" EBBL

Zurück zur Übersicht

Ortsname
Ländercode / m ü. NN
Zeit Temperatur Taupunkt Rel.
Luftfeuchte
Luftdruck:
Altimeter
NN
Station
Wind in Beaufort
(Knoten)
Sichtweite
(Meter)
Wolken
(Meter über Grund)
Wettererscheinung
KLEINE-BROGEL(BA
BE 50
Fr 20.05. 01:551111100 %1022
1022
1016
Windstill300 Nieselregen (schwach)
KLEINE-BROGEL(BA
BE 50
Fr 20.05. 01:251212100 %1022
1022
1016
Uml 1 (1)50 Regen (schwach)
KLEINE-BROGEL(BA
BE 50
Fr 20.05. 01:031212100 %1022
1022
1016
Uml 1 (1)250 Regen (schwach)
KLEINE-BROGEL(BA
BE 50
Fr 20.05. 00:551212100 %1022
1022
1016
Uml 1 (1)4200 Nebeldunst
KLEINE-BROGEL(BA
BE 50
Fr 20.05. 00:491212100 %1022
1022
1016
Uml 1 (1)3600 Nebeldunst
KLEINE-BROGEL(BA
BE 50
Fr 20.05. 00:33131294 %1022
1022
1016
Uml 1 (2)4700  
KLEINE-BROGEL(BA
BE 50
Fr 20.05. 00:25131294 %1022
1022
1016
Uml 1 (2)6000  
KLEINE-BROGEL(BA
BE 50
Do 19.05. 23:55131294 %1022
1022
1016
Uml 1 (2)7000  
KLEINE-BROGEL(BA
BE 50
Do 19.05. 23:33141394 %1022
1022
1016
Uml 1 (2)7000  
KLEINE-BROGEL(BA
BE 50
Do 19.05. 23:25141394 %1022
1022
1016
Uml 1 (2)8000  
KLEINE-BROGEL(BA
BE 50
Do 19.05. 23:20141394 %1022
1022
1016
Uml 1 (2)7000  
KLEINE-BROGEL(BA
BE 50
Do 19.05. 22:55151388 %1021
1021
1015
Uml 1 (2)9000  
KLEINE-BROGEL(BA
BE 50
Do 19.05. 22:25161382 %1021
1021
1015
WNW 2 (3)>= 10000  
KLEINE-BROGEL(BA
BE 50
Do 19.05. 22:15161382 %1021
1021
1015
WNW 2 (4)>= 10000Leicht bewölkt (430) 
KLEINE-BROGEL(BA
BE 50
Do 19.05. 21:55171482 %1021
1021
1015
WNW 2 (5)>= 10000Wolkig (430) 
KLEINE-BROGEL(BA
BE 50
Do 19.05. 21:50171482 %1021
1021
1015
WNW 2 (4)>= 10000Wolkig (430) 
KLEINE-BROGEL(BA
BE 50
Do 19.05. 21:25171482 %1021
1021
1015
WNW 2 (4)>= 10000Leicht bewölkt (460) 
KLEINE-BROGEL(BA
BE 50
Do 19.05. 21:15181477 %1021
1021
1015
WNW 2 (3)>= 10000Leicht bewölkt (520) 
KLEINE-BROGEL(BA
BE 50
Do 19.05. 20:55181477 %1021
1021
1015
NW 2 (4)>= 10000Wolkig (730)
Leicht bewölkt (580)
 
KLEINE-BROGEL(BA
BE 50
Do 19.05. 20:25191578 %1020
1020
1014
NW 2 (5)>= 10000Wolkig (550) 
KLEINE-BROGEL(BA
BE 50
Do 19.05. 20:20191578 %1020
1020
1014
NW 2 (6)>= 10000Wolkig (550) 
KLEINE-BROGEL(BA
BE 50
Do 19.05. 19:55201573 %1020
1020
1014
NW 3 (7)>= 10000Leicht bewölkt (790) 
KLEINE-BROGEL(BA
BE 50
Do 19.05. 19:45201573 %1020
1020
1014
NW 3 (7)>= 10000Wolkig (730) 
KLEINE-BROGEL(BA
BE 50
Do 19.05. 19:44201573 %1020
1020
1014
NW 3 (8)>= 10000Stark bewölkt (760) 
KLEINE-BROGEL(BA
BE 50
Do 19.05. 19:33211569 %1020
1020
1014
WNW 3 (8)>= 10000Stark bewölkt (730) 
KLEINE-BROGEL(BA
BE 50
Do 19.05. 19:25221669 %1020
1020
1014
WNW 3 (8)>= 10000Stark bewölkt (1300)
Stark bewölkt (760)
 
KLEINE-BROGEL(BA
BE 50
Do 19.05. 19:19221669 %1019
1019
1013
W 3 (9)>= 10000Stark bewölkt (1300)
Wolkig (730)
 
KLEINE-BROGEL(BA
BE 50
Do 19.05. 18:55221565 %1019
1019
1013
W 3 (9)>= 10000Stark bewölkt (880) 
KLEINE-BROGEL(BA
BE 50
Do 19.05. 18:25221565 %1019
1019
1013
W 3 (7)>= 10000Stark bewölkt (2100)
Wolkig (820)
 
KLEINE-BROGEL(BA
BE 50
Do 19.05. 17:55231561 %1019
1019
1013
W 3 (7)>= 10000Stark bewölkt (1900) 
KLEINE-BROGEL(BA
BE 50
Do 19.05. 17:25221565 %1019
1019
1013
WSW 4 (12)>= 10000Stark bewölkt (4300)
Leicht bewölkt (2300)
 
KLEINE-BROGEL(BA
BE 50
Do 19.05. 16:55231457 %1019
1019
1013
W 4 (11)>= 10000Wolkig (2400)
Leicht bewölkt (910)
 
KLEINE-BROGEL(BA
BE 50
Do 19.05. 16:25231665 %1018
1018
1012
N 2 (4)>= 10000Stark bewölkt (4900)
Leicht bewölkt (1200)
 
KLEINE-BROGEL(BA
BE 50
Do 19.05. 16:24231665 %1018
1018
1012
N 2 (5)>= 10000Stark bewölkt (4900)
Leicht bewölkt (1200)
 
KLEINE-BROGEL(BA
BE 50
Do 19.05. 15:55221773 %1018
1018
1012
N 2 (3)>= 10000Stark bewölkt (4900)
Leicht bewölkt (1200)
 
KLEINE-BROGEL(BA
BE 50
Do 19.05. 15:25201678 %1018
1018
1012
WNW 3 (7)>= 10000Wolkig (1800)
Leicht bewölkt (300)
 
KLEINE-BROGEL(BA
BE 50
Do 19.05. 15:07191578 %1018
1018
1012
WNW 3 (7)>= 10000Wolkig Cb (1800)
Leicht bewölkt (300)
Regen-Schauer (schwach)
KLEINE-BROGEL(BA
BE 50
Do 19.05. 14:55201573 %1018
1018
1012
WNW 3 (7)>= 10000Wolkig Cb (1800)
Leicht bewölkt (300)
 
KLEINE-BROGEL(BA
BE 50
Do 19.05. 14:25181583 %1018
1018
1012
WNW 3 (9)8000Stark bewölkt (3000)
Wolkig Cb (1200)
Leicht bewölkt (300)
 
KLEINE-BROGEL(BA
BE 50
Do 19.05. 14:07171588 %1017
1017
1011
WNW 4 (14) - 7 (27)8000Wolkig Cb (1200)
Leicht bewölkt (300)
 
KLEINE-BROGEL(BA
BE 50
Do 19.05. 14:04171588 %1017
1017
1011
WNW 4 (15) - 7 (27)8000Wolkig Cb (1200)
Leicht bewölkt (300)
 
KLEINE-BROGEL(BA
BE 50
Do 19.05. 13:55171588 %1018
1018
1012
WNW 5 (18) - 8 (34)4000Wolkig (2400)
Leicht bewölkt Cb (1200)
Gewitter mit Regen
KLEINE-BROGEL(BA
BE 50
Do 19.05. 13:54181583 %1017
1017
1011
WNW 6 (21) - 9 (42)4000Wolkig (2400)
Leicht bewölkt Cb (1200)
Gewitter mit Regen
KLEINE-BROGEL(BA
BE 50
Do 19.05. 13:42231353 %1017
1017
1011
SW 5 (16) - 10 (50)2000Wolkig (2400)
Leicht bewölkt Cb (1200)
Gewitter mit Regen
KLEINE-BROGEL(BA
BE 50
Do 19.05. 13:25281340 %1015
1015
1009
SSW 3 (7)>= 10000Wolkig (2400)
Leicht bewölkt (1200)
 
KLEINE-BROGEL(BA
BE 50
Do 19.05. 12:55301335 %1015
1015
1009
SSO 2 (5)>= 10000Wolkig (2400)
Leicht bewölkt (1200)
 
KLEINE-BROGEL(BA
BE 50
Do 19.05. 12:25291440 %1015
1015
1009
SO 2 (4)>= 10000Wolkig (2400)
Leicht bewölkt (1200)
 
KLEINE-BROGEL(BA
BE 50
Do 19.05. 11:55291440 %1016
1016
1010
SO 2 (4)>= 10000Wolkig (2400)
Leicht bewölkt (1200)
 
KLEINE-BROGEL(BA
BE 50
Do 19.05. 10:55261448 %1016
1016
1010
SO 2 (6)>= 10000Wolkig (5500) 
KLEINE-BROGEL(BA
BE 50
Do 19.05. 10:25251554 %1016
1016
1010
OSO 2 (5)>= 10000Wolkig (5500) 
KLEINE-BROGEL(BA
BE 50
Do 19.05. 09:55231561 %1016
1016
1010
OSO 2 (3)>= 10000Wolkig (3700)
Leicht bewölkt (1800)
 
KLEINE-BROGEL(BA
BE 50
Do 19.05. 09:25201678 %1017
1017
1011
Uml 1 (2)>= 10000Stark bewölkt (3700)
Wolkig (1800)
 
KLEINE-BROGEL(BA
BE 50
Do 19.05. 08:55201573 %1016
1016
1010
OSO 2 (5)>= 10000Stark bewölkt (3700)
Wolkig (2100)
Regen-Schauer (schwach)
KLEINE-BROGEL(BA
BE 50
Do 19.05. 08:25201573 %1017
1017
1011
O 2 (5)>= 10000Stark bewölkt (3700)
Wolkig (2700)
 
KLEINE-BROGEL(BA
BE 50
Do 19.05. 08:15201573 %1017
1017
1011
O 2 (5)>= 10000Stark bewölkt (2700) 
KLEINE-BROGEL(BA
BE 50
Do 19.05. 08:03201573 %1017
1017
1011
O 2 (3)>= 10000Stark bewölkt (2700) 
KLEINE-BROGEL(BA
BE 50
Do 19.05. 00:55181583 %1018
1018
1012
Uml 1 (2)>= 10000  
KLEINE-BROGEL(BA
BE 50
Do 19.05. 00:25191578 %1018
1018
1012
Uml 1 (1)>= 10000  
KLEINE-BROGEL(BA
BE 50
Mi 18.05. 23:55191578 %1019
1019
1013
Uml 1 (1)>= 10000  
KLEINE-BROGEL(BA
BE 50
Mi 18.05. 23:25211569 %1019
1019
1013
NO 2 (4)>= 10000Wolkig (2600) 
KLEINE-BROGEL(BA
BE 50
Mi 18.05. 22:55211569 %1019
1019
1013
NNO 2 (3)>= 10000Stark bewölkt (2600) 
KLEINE-BROGEL(BA
BE 50
Mi 18.05. 22:25221565 %1019
1019
1013
N 2 (3)>= 10000Stark bewölkt (2800) 
KLEINE-BROGEL(BA
BE 50
Mi 18.05. 21:55221460 %1019
1019
1013
N 2 (3)>= 10000Stark bewölkt (2800) 
KLEINE-BROGEL(BA
BE 50
Mi 18.05. 21:25231457 %1019
1019
1013
Uml 1 (2)>= 10000Leicht bewölkt (2900) 
KLEINE-BROGEL(BA
BE 50
Mi 18.05. 20:55241454 %1019
1019
1013
N 2 (3)>= 10000  
KLEINE-BROGEL(BA
BE 50
Mi 18.05. 20:25241454 %1019
1019
1013
N 2 (3)>= 10000  
KLEINE-BROGEL(BA
BE 50
Mi 18.05. 19:55251450 %1019
1019
1013
N 2 (3)>= 10000Leicht bewölkt (3000) 
KLEINE-BROGEL(BA
BE 50
Mi 18.05. 19:25261345 %1019
1019
1013
Uml 1 (2)>= 10000Leicht bewölkt (2900) 
KLEINE-BROGEL(BA
BE 50
Mi 18.05. 18:55271239 %1019
1019
1013
NNW 2 (5)>= 10000Leicht bewölkt (2500) 
KLEINE-BROGEL(BA
BE 50
Mi 18.05. 18:25271445 %1020
1020
1014
WNW 2 (3)>= 10000Stark bewölkt (2900) 
KLEINE-BROGEL(BA
BE 50
Mi 18.05. 18:22271342 %1020
1020
1014
Uml 1 (2)>= 10000Stark bewölkt (2900) 
KLEINE-BROGEL(BA
BE 50
Mi 18.05. 18:11271342 %1019
1019
1013
W 2 (3)3600Stark bewölkt (2900) 
KLEINE-BROGEL(BA
BE 50
Mi 18.05. 17:55271445 %1020
1020
1014
W 2 (3)>= 10000Stark bewölkt (2800) 
KLEINE-BROGEL(BA
BE 50
Mi 18.05. 17:25271445 %1020
1020
1014
W 2 (4)>= 10000Stark bewölkt (2800) 
KLEINE-BROGEL(BA
BE 50
Mi 18.05. 16:55271445 %1020
1020
1014
NW 2 (4)>= 10000Wolkig (2900) 
KLEINE-BROGEL(BA
BE 50
Mi 18.05. 16:25271445 %1020
1020
1014
WNW 2 (3)>= 10000Wolkig (2300) 
KLEINE-BROGEL(BA
BE 50
Mi 18.05. 15:55271548 %1020
1020
1014
WNW 2 (3)>= 10000Wolkig (2300) 
KLEINE-BROGEL(BA
BE 50
Mi 18.05. 15:25271445 %1020
1020
1014
W 2 (5)>= 10000Wolkig (2300) 
KLEINE-BROGEL(BA
BE 50
Mi 18.05. 14:55261448 %1020
1020
1014
W 2 (6)>= 10000Stark bewölkt (2300) 
KLEINE-BROGEL(BA
BE 50
Mi 18.05. 14:25271445 %1020
1020
1014
W 2 (5)>= 10000Stark bewölkt (2400) 

Altimeter: Einstellung am Altimeter (Höhenmesser), die Höhe 0 muss auf diesen Luftdruckwert zeigen, damit das Gerät die Stationshöhe richtig anzeigt.

NN: Luftdruck reduziert auf "Normal Null", auf Meereshöhe, dieser von der Temperatur abhängige Wert wird bisweilen unkorrekt einfach als "Luftdruck" bezeichnet. Eigentlich nur eine fiktive Größe, die es erlaubt, Stationen auf unterschiedlichen Höhen miteinander zu vergleichen.

Station: Realer Luftdruck an der Station.